createdAt,value
2019-02-25T00:01:02.370Z,21.37
2019-02-25T00:03:33.321Z,20.27
2019-02-25T00:06:01.221Z,19.50
2019-02-25T00:08:29.098Z,17.10
2019-02-25T00:10:57.105Z,20.13
2019-02-25T00:13:24.991Z,17.97
2019-02-25T00:15:52.887Z,20.20
2019-02-25T00:18:20.878Z,21.13
2019-02-25T00:20:48.764Z,21.30
2019-02-25T00:23:16.640Z,20.73
2019-02-25T00:25:44.638Z,19.70
2019-02-25T00:28:12.572Z,17.53
2019-02-25T00:30:40.474Z,17.60
2019-02-25T00:33:08.385Z,18.67
2019-02-25T00:35:36.249Z,18.97
2019-02-25T00:38:04.121Z,19.70
2019-02-25T00:40:32.063Z,18.30
2019-02-25T00:42:59.935Z,18.53
2019-02-25T00:45:27.829Z,17.00
2019-02-25T00:47:55.742Z,16.30
2019-02-25T00:50:23.610Z,18.00
2019-02-25T00:52:51.509Z,17.80
2019-02-25T00:55:19.852Z,17.90
2019-02-25T00:57:47.924Z,20.43
2019-02-25T01:00:16.363Z,17.93
2019-02-25T01:02:44.351Z,17.97
2019-02-25T01:05:12.268Z,17.63
2019-02-25T01:07:40.158Z,16.87
2019-02-25T01:10:09.082Z,18.53
2019-02-25T01:12:36.963Z,19.20
2019-02-25T01:15:06.188Z,18.30
2019-02-25T01:17:34.296Z,17.07
2019-02-25T01:20:02.210Z,16.80
2019-02-25T01:22:30.100Z,18.47
2019-02-25T01:24:58.039Z,19.47
2019-02-25T01:27:25.939Z,17.77
2019-02-25T01:29:53.845Z,19.77
2019-02-25T01:32:21.809Z,15.67
2019-02-25T01:34:49.697Z,20.27
2019-02-25T01:37:17.600Z,17.80
2019-02-25T01:39:45.596Z,17.83
2019-02-25T01:42:13.592Z,18.37
2019-02-25T01:44:41.678Z,18.10
2019-02-25T01:47:09.715Z,17.20
2019-02-25T01:49:37.637Z,18.10
2019-02-25T01:52:05.548Z,17.87
2019-02-25T01:54:33.800Z,18.53
2019-02-25T01:57:01.849Z,17.30
2019-02-25T01:59:29.749Z,17.97
2019-02-25T02:01:57.673Z,17.20
2019-02-25T02:04:25.753Z,17.27
2019-02-25T02:06:53.742Z,17.00
2019-02-25T02:09:21.634Z,17.77
2019-02-25T02:11:49.554Z,19.53
2019-02-25T02:14:17.412Z,17.40
2019-02-25T02:16:45.787Z,21.07
2019-02-25T02:19:13.682Z,18.33
2019-02-25T02:21:41.588Z,18.03
2019-02-25T02:24:09.521Z,20.50
2019-02-25T02:26:37.453Z,18.50
2019-02-25T02:29:05.409Z,19.27
2019-02-25T02:31:33.330Z,18.57
2019-02-25T02:34:01.295Z,18.37
2019-02-25T02:36:29.196Z,21.67
2019-02-25T02:38:57.170Z,16.20
2019-02-25T02:41:25.104Z,15.53
2019-02-25T02:43:53.014Z,17.00
2019-02-25T02:46:27.115Z,16.70
2019-02-25T02:48:56.640Z,14.20
2019-02-25T02:51:24.528Z,14.67
2019-02-25T02:53:52.490Z,15.27
2019-02-25T02:56:20.415Z,17.43
2019-02-25T02:58:48.334Z,16.03
2019-02-25T03:01:16.254Z,16.37
2019-02-25T03:03:44.201Z,16.87
2019-02-25T03:06:12.130Z,16.97
2019-02-25T03:08:40.073Z,15.47
2019-02-25T03:11:08.250Z,15.23
2019-02-25T03:13:36.165Z,15.60
2019-02-25T03:16:04.049Z,15.53
2019-02-25T03:18:32.028Z,17.10
2019-02-25T03:20:59.976Z,15.90
2019-02-25T03:23:27.950Z,14.90
2019-02-25T03:25:55.852Z,17.60
2019-02-25T03:28:23.791Z,17.07
2019-02-25T03:30:51.802Z,14.27
2019-02-25T03:33:19.802Z,16.70
2019-02-25T03:35:47.797Z,18.83
2019-02-25T03:38:15.704Z,16.73
2019-02-25T03:40:43.613Z,14.60
2019-02-25T03:43:11.612Z,17.27
2019-02-25T03:45:39.498Z,17.07
2019-02-25T03:48:07.370Z,17.17
2019-02-25T03:50:35.322Z,19.53
2019-02-25T03:53:03.245Z,15.73
2019-02-25T03:55:31.213Z,16.77
2019-02-25T03:57:59.172Z,15.53
2019-02-25T04:00:27.445Z,14.67
2019-02-25T04:02:55.782Z,15.57
2019-02-25T04:05:23.810Z,16.07
2019-02-25T04:07:51.699Z,17.60
2019-02-25T04:10:19.593Z,17.57
2019-02-25T04:12:47.615Z,17.93
2019-02-25T04:15:17.982Z,19.47
2019-02-25T04:17:46.102Z,15.17
2019-02-25T04:20:14.362Z,14.80
2019-02-25T04:22:42.328Z,15.70
2019-02-25T04:25:10.751Z,14.87
2019-02-25T04:27:38.690Z,15.27
2019-02-25T04:30:08.330Z,18.43
2019-02-25T04:32:36.405Z,15.70
2019-02-25T04:35:04.791Z,14.20
2019-02-25T04:37:32.869Z,17.33
2019-02-25T04:40:00.776Z,15.43
2019-02-25T04:42:28.719Z,14.87
2019-02-25T04:44:56.668Z,18.47
2019-02-25T04:47:24.597Z,15.73
2019-02-25T04:49:52.552Z,18.57
2019-02-25T04:52:20.491Z,19.13
2019-02-25T04:54:48.452Z,17.90
2019-02-25T04:57:16.372Z,15.57
2019-02-25T04:59:44.273Z,15.37
2019-02-25T05:02:12.167Z,17.63
2019-02-25T05:04:40.111Z,13.60
2019-02-25T05:07:08.025Z,18.47
2019-02-25T05:09:35.933Z,18.63
2019-02-25T05:12:03.903Z,15.50
2019-02-25T05:14:31.816Z,14.97
2019-02-25T05:16:59.956Z,16.13
2019-02-25T05:19:28.052Z,14.20
2019-02-25T05:21:55.957Z,13.63
2019-02-25T05:24:23.836Z,15.20
2019-02-25T05:26:51.763Z,14.30
2019-02-25T05:29:20.238Z,14.13
2019-02-25T05:31:48.192Z,14.90
2019-02-25T05:34:16.163Z,16.30
2019-02-25T05:36:44.050Z,13.27
2019-02-25T05:39:12.344Z,14.30
2019-02-25T05:41:40.246Z,13.47
2019-02-25T05:44:08.619Z,11.97
2019-02-25T05:46:36.622Z,12.60
2019-02-25T05:49:04.613Z,15.10
2019-02-25T05:51:32.593Z,12.70
2019-02-25T05:54:00.498Z,14.17
2019-02-25T05:56:31.333Z,15.37
2019-02-25T05:58:59.222Z,17.87
2019-02-25T06:01:27.129Z,15.00
2019-02-25T06:03:55.109Z,13.93
2019-02-25T06:06:23.008Z,16.07
2019-02-25T06:08:51.475Z,13.13
2019-02-25T06:11:19.403Z,17.33
2019-02-25T06:13:47.295Z,14.13
2019-02-25T06:16:15.224Z,13.63
2019-02-25T06:18:43.264Z,16.33
2019-02-25T06:21:11.149Z,16.00
2019-02-25T06:23:39.074Z,13.13
2019-02-25T06:26:07.027Z,16.13
2019-02-25T06:28:35.343Z,15.37
2019-02-25T06:31:03.379Z,14.27
2019-02-25T06:33:31.426Z,16.57
2019-02-25T06:35:59.420Z,12.57
2019-02-25T06:38:27.611Z,14.77
2019-02-25T06:40:55.560Z,15.50
2019-02-25T06:43:23.480Z,15.37
2019-02-25T06:45:51.367Z,14.27
2019-02-25T06:48:19.286Z,13.70
2019-02-25T06:50:47.195Z,14.13
2019-02-25T06:53:15.678Z,12.87
2019-02-25T06:55:43.633Z,15.60
2019-02-25T06:58:11.619Z,14.63
2019-02-25T07:00:39.547Z,13.60
2019-02-25T07:03:07.545Z,17.13
2019-02-25T07:05:42.880Z,13.03
2019-02-25T07:08:13.319Z,16.17
2019-02-25T07:10:48.375Z,14.23
2019-02-25T07:13:54.021Z,15.70
2019-02-25T07:16:40.532Z,12.03
2019-02-25T07:19:30.284Z,13.47
2019-02-25T07:22:26.315Z,13.93
2019-02-25T07:25:03.668Z,15.00
2019-02-25T07:28:02.857Z,12.43
2019-02-25T07:30:55.742Z,14.40
2019-02-25T07:33:41.245Z,14.57
2019-02-25T07:36:27.096Z,13.03
2019-02-25T07:39:20.083Z,14.63
2019-02-25T07:42:05.634Z,13.10
2019-02-25T07:44:52.572Z,13.90
2019-02-25T07:47:51.671Z,14.90
2019-02-25T07:50:47.202Z,12.27
2019-02-25T07:53:20.406Z,13.27
2019-02-25T07:56:05.940Z,13.27
2019-02-25T07:59:02.202Z,14.00
2019-02-25T08:01:52.172Z,13.63
2019-02-25T08:04:45.053Z,11.10
2019-02-25T08:07:38.119Z,15.07
2019-02-25T08:10:26.082Z,15.43
2019-02-25T08:13:01.706Z,12.70
2019-02-25T08:15:44.787Z,12.03
2019-02-25T08:18:20.541Z,11.27
2019-02-25T08:21:10.482Z,15.63
2019-02-25T08:23:57.482Z,13.00
2019-02-25T08:26:42.984Z,12.77
2019-02-25T08:29:28.960Z,13.63
2019-02-25T08:32:12.818Z,13.93
2019-02-25T08:34:58.395Z,12.40
2019-02-25T08:37:51.590Z,15.07
2019-02-25T08:40:48.255Z,16.50
2019-02-25T08:43:41.243Z,16.53
2019-02-25T08:46:20.849Z,13.27
2019-02-25T08:48:55.194Z,14.17
2019-02-25T08:51:23.195Z,17.63
2019-02-25T08:53:51.102Z,13.87
2019-02-25T08:56:19.043Z,16.17
2019-02-25T08:58:47.017Z,14.60
2019-02-25T09:01:15.533Z,14.70
2019-02-25T09:03:43.568Z,16.17
2019-02-25T09:06:11.521Z,15.93
2019-02-25T09:08:39.670Z,15.00
2019-02-25T09:11:13.989Z,12.53
2019-02-25T09:13:37.421Z,14.83
2019-02-25T09:16:05.312Z,18.50
2019-02-25T09:18:33.182Z,14.47
2019-02-25T09:21:01.202Z,14.37
2019-02-25T09:23:29.079Z,12.20
2019-02-25T09:25:56.970Z,14.17
2019-02-25T09:28:26.028Z,13.13
2019-02-25T09:30:54.056Z,12.53
2019-02-25T09:33:22.004Z,13.93
2019-02-25T09:35:49.911Z,11.70
2019-02-25T09:38:17.875Z,12.70
2019-02-25T09:40:45.751Z,10.97
2019-02-25T09:43:13.658Z,15.10
2019-02-25T09:45:41.566Z,13.20
2019-02-25T09:48:09.449Z,17.30
2019-02-25T09:50:37.372Z,12.97
2019-02-25T09:53:07.271Z,12.60
2019-02-25T09:55:35.058Z,10.97
2019-02-25T09:58:02.987Z,11.93
2019-02-25T10:00:31.148Z,11.03
2019-02-25T10:02:59.041Z,10.80
2019-02-25T10:05:27.029Z,11.47
2019-02-25T10:07:54.931Z,11.47
2019-02-25T10:10:22.853Z,12.90
2019-02-25T10:12:50.718Z,12.03
2019-02-25T10:15:18.692Z,11.93
2019-02-25T10:17:46.621Z,11.00
2019-02-25T10:20:14.579Z,9.60
2019-02-25T10:22:42.466Z,12.80
2019-02-25T10:25:10.408Z,11.67
2019-02-25T10:27:38.303Z,11.47
2019-02-25T10:30:07.242Z,11.43
2019-02-25T10:32:35.239Z,9.43
2019-02-25T10:35:03.137Z,10.63
2019-02-25T10:37:30.998Z,9.40
2019-02-25T10:39:58.928Z,9.23
2019-02-25T10:42:27.542Z,9.33
2019-02-25T10:44:56.436Z,11.03
2019-02-25T10:47:24.425Z,9.03
2019-02-25T10:49:52.313Z,11.63
2019-02-25T10:52:20.231Z,9.77
2019-02-25T10:54:49.854Z,9.37
2019-02-25T10:57:21.306Z,9.97
2019-02-25T10:59:48.782Z,7.30
2019-02-25T11:02:17.499Z,6.20
2019-02-25T11:04:47.461Z,6.37
2019-02-25T11:07:16.097Z,5.20
2019-02-25T11:10:13.853Z,5.93
2019-02-25T11:12:41.812Z,9.17
2019-02-25T11:15:11.542Z,9.37
2019-02-25T11:17:39.501Z,9.23
2019-02-25T11:20:08.303Z,7.20
2019-02-25T11:22:38.044Z,6.70
2019-02-25T11:25:05.978Z,7.07
2019-02-25T11:27:35.854Z,7.00
2019-02-25T11:30:03.566Z,6.53
2019-02-25T11:32:32.236Z,7.50
2019-02-25T11:35:01.389Z,8.90
2019-02-25T11:37:29.885Z,9.57
2019-02-25T11:39:59.370Z,7.40
2019-02-25T11:42:27.401Z,6.53
2019-02-25T11:44:57.099Z,7.10
2019-02-25T11:47:25.075Z,6.23
2019-02-25T11:49:53.036Z,7.97
2019-02-25T11:52:20.933Z,8.00
2019-02-25T11:54:48.814Z,7.23
2019-02-25T11:57:16.892Z,8.67
2019-02-25T11:59:44.889Z,6.70
2019-02-25T12:02:12.860Z,6.37
2019-02-25T12:04:40.772Z,6.03
2019-02-25T12:07:08.766Z,10.53
2019-02-25T12:09:36.798Z,6.97
2019-02-25T12:12:04.742Z,7.90
2019-02-25T12:14:32.674Z,7.03
2019-02-25T12:17:00.912Z,6.10
2019-02-25T12:19:28.869Z,6.67
2019-02-25T12:21:56.803Z,5.37
2019-02-25T12:24:24.811Z,6.40
2019-02-25T12:26:52.888Z,5.87
2019-02-25T12:29:21.223Z,5.87
2019-02-25T12:31:49.290Z,6.10
2019-02-25T12:34:17.412Z,7.47
2019-02-25T12:36:45.446Z,5.03
2019-02-25T12:39:13.471Z,4.87
2019-02-25T12:41:41.382Z,6.07
2019-02-25T12:44:09.556Z,5.13
2019-02-25T12:46:37.460Z,5.13
2019-02-25T12:49:05.436Z,5.53
2019-02-25T12:51:33.314Z,4.93
2019-02-25T12:54:01.471Z,4.63
2019-02-25T12:56:29.334Z,3.90
2019-02-25T12:58:57.226Z,4.60
2019-02-25T13:01:25.293Z,4.53
2019-02-25T13:03:53.187Z,4.43
2019-02-25T13:06:21.049Z,8.57
2019-02-25T13:08:49.117Z,3.90
2019-02-25T13:11:17.290Z,3.90
2019-02-25T13:13:45.251Z,4.30
2019-02-25T13:16:13.319Z,4.23
2019-02-25T13:18:41.211Z,4.37
2019-02-25T13:21:11.849Z,4.87
2019-02-25T13:23:39.837Z,4.10
2019-02-25T13:26:07.851Z,4.27
2019-02-25T13:28:35.845Z,3.97
2019-02-25T13:31:05.637Z,3.73
2019-02-25T13:33:33.882Z,4.37
2019-02-25T13:36:04.959Z,4.60
2019-02-25T13:38:33.352Z,5.20
2019-02-25T13:41:01.474Z,4.23
2019-02-25T13:43:29.418Z,4.23
2019-02-25T13:45:57.547Z,4.33
2019-02-25T13:48:25.423Z,4.83
2019-02-25T13:50:53.385Z,4.33
2019-02-25T13:53:21.547Z,4.47
2019-02-25T13:55:49.575Z,5.13
2019-02-25T13:58:17.561Z,4.50
2019-02-25T14:00:45.627Z,4.83
2019-02-25T14:03:13.574Z,4.87
2019-02-25T14:05:41.753Z,5.00
2019-02-25T14:08:09.670Z,5.00
2019-02-25T14:10:37.582Z,4.23
2019-02-25T14:13:05.609Z,5.60
2019-02-25T14:15:33.685Z,4.73
2019-02-25T14:18:01.622Z,5.10
2019-02-25T14:20:29.606Z,5.73
2019-02-25T14:23:00.188Z,6.20
2019-02-25T14:25:27.543Z,5.10
2019-02-25T14:27:55.810Z,5.20
2019-02-25T14:30:24.110Z,7.03
2019-02-25T14:32:53.522Z,4.90
2019-02-25T14:35:23.182Z,3.90
2019-02-25T14:37:51.433Z,3.97
2019-02-25T14:40:21.322Z,5.70
2019-02-25T14:42:51.363Z,5.40
2019-02-25T14:45:21.965Z,3.77
2019-02-25T14:47:55.332Z,3.23
2019-02-25T14:50:20.886Z,5.17
2019-02-25T14:52:49.144Z,6.53
2019-02-25T14:55:17.133Z,7.00
2019-02-25T14:57:45.092Z,4.90
2019-02-25T15:00:15.587Z,5.30
2019-02-25T15:02:45.499Z,4.80
2019-02-25T15:05:15.040Z,3.73
2019-02-25T15:07:44.557Z,5.80
2019-02-25T15:10:12.508Z,5.30
2019-02-25T15:12:40.504Z,5.33
2019-02-25T15:15:10.295Z,5.90
2019-02-25T15:17:38.395Z,6.03
2019-02-25T15:20:06.492Z,7.37
2019-02-25T15:22:36.293Z,5.87
2019-02-25T15:25:04.795Z,5.33
2019-02-25T15:27:32.778Z,5.97
2019-02-25T15:30:00.739Z,6.57
2019-02-25T15:32:29.551Z,5.83
2019-02-25T15:34:58.851Z,7.33
2019-02-25T15:37:26.804Z,5.93
2019-02-25T15:39:55.893Z,5.67
2019-02-25T15:42:26.052Z,5.50
2019-02-25T15:44:55.547Z,6.80
2019-02-25T15:47:24.009Z,5.60
2019-02-25T15:49:51.993Z,5.47
2019-02-25T15:52:21.073Z,5.97
2019-02-25T15:54:49.639Z,8.00
2019-02-25T15:57:17.637Z,6.87
2019-02-25T15:59:45.627Z,6.10
2019-02-25T16:02:14.341Z,6.10
2019-02-25T16:04:42.563Z,8.37
2019-02-25T16:07:11.066Z,6.10
2019-02-25T16:09:39.169Z,5.93
2019-02-25T16:12:07.948Z,6.43
2019-02-25T16:14:38.820Z,12.07
2019-02-25T16:17:06.463Z,5.80
2019-02-25T16:19:43.599Z,6.27
2019-02-25T16:22:07.431Z,7.20
2019-02-25T16:24:34.163Z,6.17
2019-02-25T16:27:02.678Z,5.73
2019-02-25T16:29:31.721Z,6.73
2019-02-25T16:32:01.859Z,5.47
2019-02-25T16:34:29.690Z,5.73
2019-02-25T16:36:59.892Z,7.10
2019-02-25T16:39:27.779Z,6.47
2019-02-25T16:41:55.727Z,6.30
2019-02-25T16:44:23.696Z,7.97
2019-02-25T16:46:53.887Z,6.53
2019-02-25T16:49:21.324Z,6.30
2019-02-25T16:51:50.921Z,7.17
2019-02-25T16:54:20.701Z,6.23
2019-02-25T16:56:48.537Z,6.37
2019-02-25T16:59:18.502Z,6.53
2019-02-25T17:01:46.250Z,6.97
2019-02-25T17:04:16.092Z,7.67
2019-02-25T17:06:44.030Z,7.93
2019-02-25T17:09:16.168Z,10.60
2019-02-25T17:11:45.987Z,6.60
2019-02-25T17:14:14.898Z,6.67
2019-02-25T17:16:43.608Z,8.43
2019-02-25T17:19:11.678Z,7.40
2019-02-25T17:21:42.953Z,7.40
2019-02-25T17:24:09.853Z,8.47
2019-02-25T17:26:37.900Z,11.27
2019-02-25T17:29:05.901Z,8.63
2019-02-25T17:31:36.626Z,10.07
2019-02-25T17:34:05.641Z,7.50
2019-02-25T17:36:33.746Z,7.03
2019-02-25T17:39:01.845Z,6.23
2019-02-25T17:41:30.481Z,9.17
2019-02-25T17:43:59.242Z,8.63
2019-02-25T17:46:28.822Z,6.97
2019-02-25T17:48:57.864Z,8.03
2019-02-25T17:51:27.040Z,9.27
2019-02-25T17:53:55.466Z,8.07
2019-02-25T17:56:25.228Z,9.40
2019-02-25T17:58:53.517Z,9.73
2019-02-25T18:01:23.628Z,9.47
2019-02-25T18:03:51.388Z,8.53
2019-02-25T18:06:20.134Z,11.27
2019-02-25T18:08:50.877Z,10.13
2019-02-25T18:11:20.278Z,8.77
2019-02-25T18:13:49.028Z,10.33
2019-02-25T18:16:18.956Z,9.40
2019-02-25T18:18:47.844Z,9.57
2019-02-25T18:21:16.846Z,12.20
2019-02-25T18:23:46.625Z,9.80
2019-02-25T18:26:15.382Z,11.43
2019-02-25T18:28:44.314Z,10.10
2019-02-25T18:31:13.600Z,10.07
2019-02-25T18:33:42.424Z,8.33
2019-02-25T18:36:12.594Z,11.93
2019-02-25T18:38:45.921Z,9.13
2019-02-25T18:41:12.627Z,9.33
2019-02-25T18:43:46.774Z,9.37
2019-02-25T18:46:13.965Z,9.70
2019-02-25T18:48:42.812Z,10.30
2019-02-25T18:51:12.097Z,10.73
2019-02-25T18:53:40.668Z,10.33
2019-02-25T18:56:11.641Z,11.20
2019-02-25T18:58:41.228Z,12.13
2019-02-25T19:01:13.303Z,11.57
2019-02-25T19:03:39.854Z,11.40
2019-02-25T19:06:08.332Z,11.00
2019-02-25T19:08:36.918Z,10.97
2019-02-25T19:11:05.510Z,10.97
2019-02-25T19:13:33.506Z,11.37
2019-02-25T19:16:03.153Z,11.40
2019-02-25T19:18:32.106Z,11.33
2019-02-25T19:21:02.117Z,11.60
2019-02-25T19:23:31.257Z,14.37
2019-02-25T19:26:01.313Z,12.83
2019-02-25T19:28:30.308Z,12.27
2019-02-25T19:30:58.328Z,13.60
2019-02-25T19:33:26.371Z,11.73
2019-02-25T19:35:56.677Z,13.20
2019-02-25T19:38:24.147Z,11.83
2019-02-25T19:40:53.519Z,11.40
2019-02-25T19:43:22.070Z,11.63
2019-02-25T19:45:50.162Z,12.10
2019-02-25T19:48:19.404Z,12.57
2019-02-25T19:50:51.469Z,12.03
2019-02-25T19:53:20.235Z,16.43
2019-02-25T19:55:49.352Z,14.57
2019-02-25T19:58:17.811Z,12.40
2019-02-25T20:00:45.905Z,12.37
2019-02-25T20:03:13.926Z,12.43
2019-02-25T20:05:44.199Z,13.70
2019-02-25T20:08:12.732Z,11.97
2019-02-25T20:10:40.784Z,12.97
2019-02-25T20:13:08.949Z,12.20
2019-02-25T20:15:39.658Z,13.63
2019-02-25T20:18:07.693Z,15.40
2019-02-25T20:20:38.476Z,13.40
2019-02-25T20:23:08.394Z,13.60
2019-02-25T20:25:36.329Z,13.43
2019-02-25T20:28:04.763Z,12.87
2019-02-25T20:30:32.760Z,13.93
2019-02-25T20:33:01.246Z,15.83
2019-02-25T20:35:31.334Z,18.50
2019-02-25T20:38:00.367Z,12.60
2019-02-25T20:40:30.501Z,14.53
2019-02-25T20:43:00.935Z,15.67
2019-02-25T20:45:30.455Z,13.37
2019-02-25T20:47:59.697Z,16.33
2019-02-25T20:50:28.116Z,13.87
2019-02-25T20:52:58.228Z,14.30
2019-02-25T20:55:27.157Z,13.63
2019-02-25T20:57:55.627Z,16.50
2019-02-25T21:00:23.663Z,13.13
2019-02-25T21:02:51.766Z,13.17
2019-02-25T21:05:22.250Z,15.07
2019-02-25T21:07:50.477Z,14.17
2019-02-25T21:10:19.586Z,11.90
2019-02-25T21:12:47.573Z,15.53
2019-02-25T21:15:15.473Z,12.40
2019-02-25T21:17:43.722Z,13.53
2019-02-25T21:20:12.403Z,17.33
2019-02-25T21:22:40.477Z,14.60
2019-02-25T21:25:08.798Z,15.37
2019-02-25T21:27:38.691Z,14.73
2019-02-25T21:30:08.269Z,17.33
2019-02-25T21:32:36.219Z,16.70
2019-02-25T21:35:05.087Z,17.00
2019-02-25T21:37:33.110Z,13.70
2019-02-25T21:40:02.942Z,14.50
2019-02-25T21:42:30.818Z,14.47
2019-02-25T21:45:00.177Z,12.40
2019-02-25T21:47:29.159Z,17.07
2019-02-25T21:49:59.099Z,16.70
2019-02-25T21:52:27.765Z,16.70
2019-02-25T21:54:58.002Z,18.13
2019-02-25T21:57:27.536Z,18.70
2019-02-25T21:59:56.375Z,14.83
2019-02-25T22:02:25.270Z,18.77
2019-02-25T22:04:54.062Z,15.70
2019-02-25T22:07:25.017Z,15.70
2019-02-25T22:09:52.101Z,14.33
2019-02-25T22:12:20.097Z,14.30
2019-02-25T22:14:49.743Z,15.90
2019-02-25T22:17:20.054Z,17.33
2019-02-25T22:19:48.115Z,18.47
2019-02-25T22:22:17.030Z,20.37
2019-02-25T22:24:45.190Z,19.90
2019-02-25T22:27:14.152Z,16.43
2019-02-25T22:29:43.541Z,16.27
2019-02-25T22:32:12.503Z,15.80
2019-02-25T22:34:41.589Z,15.47
2019-02-25T22:37:12.395Z,19.70
2019-02-25T22:39:40.931Z,17.77
2019-02-25T22:42:09.599Z,16.83
2019-02-25T22:44:38.612Z,15.07
2019-02-25T22:47:09.188Z,15.77
2019-02-25T22:49:36.169Z,15.50
2019-02-25T22:52:05.588Z,15.63
2019-02-25T22:54:37.050Z,16.43
2019-02-25T22:57:03.426Z,18.87
2019-02-25T22:59:35.033Z,15.57
2019-02-25T23:02:01.091Z,17.53
2019-02-25T23:04:29.013Z,16.70
2019-02-25T23:06:57.074Z,17.10
2019-02-25T23:09:25.807Z,15.50
2019-02-25T23:11:55.502Z,18.20
2019-02-25T23:14:23.816Z,17.63
2019-02-25T23:16:51.766Z,16.23
2019-02-25T23:19:20.253Z,17.83
2019-02-25T23:21:49.706Z,22.30
2019-02-25T23:24:17.751Z,19.23
2019-02-25T23:26:46.096Z,19.40
2019-02-25T23:29:15.521Z,20.33
2019-02-25T23:31:46.437Z,18.80
2019-02-25T23:34:15.350Z,18.13
2019-02-25T23:36:44.834Z,18.50
2019-02-25T23:39:12.780Z,16.37
2019-02-25T23:41:41.485Z,15.17
2019-02-25T23:44:12.511Z,16.87
2019-02-25T23:46:40.094Z,17.90
2019-02-25T23:49:08.178Z,16.53
2019-02-25T23:51:37.712Z,19.27
2019-02-25T23:54:05.848Z,17.97
2019-02-25T23:59:22.665Z,17.03
